Skip to main content

NOAA/GLERL Met Station at Muskegon, MI

Previous 3 Hours (2 minute increments)
See also Previous 5 Days (top of hour)
Jump down to Data
Switch to [English][Metric]
Zoom: Click and drag, Pan: shift-click and drag, Unzoom: double-click, Unzoom All






See also 1-day windrose plot


NOAA/GLERL Met Station at Muskegon, MI

Previous 3 Hours (2 minute increments)
See also Previous 5 Days (top of hour only)
Jump up to Graphs
Switch to [English][Metric]
                  Wind  Wind  Wind   Air   Dew   Rel     Sta   PAR
                   Spd   Gst   Dir  Temp    Pt   Hum    Pres uE/m2/
YYYY-MM-DD   EDT   kts   kts   deg     F     F     %   in Hg   sec
2017-09-23 14:00   8.9  10.3   192  78.8  68.8  71.0   29.49  2094
2017-09-23 13:58   8.9  10.7   189  78.8  69.0  71.5   29.49  2094
2017-09-23 13:56   8.7  10.5   191  78.8  69.0  71.6   29.49  2093
2017-09-23 13:54   9.9  10.9   192  79.2  68.7  70.0   29.49  2093
2017-09-23 13:52   9.3  10.3   193  79.2  68.6  69.6   29.49  2093
2017-09-23 13:50   9.3  10.7   189  79.0  68.7  70.4   29.49  2095
2017-09-23 13:48   8.6  10.5   187  79.0  68.9  70.8   29.49  2095
2017-09-23 13:46   8.7   9.9   188  79.0  69.0  71.1   29.49  2094
2017-09-23 13:44   8.2   9.7   190  78.6  68.9  71.7   29.49  2094
2017-09-23 13:42   8.4   9.5   188  78.3  68.7  72.1   29.49  2092
2017-09-23 13:40   8.7   9.9   189  78.3  68.7  72.0   29.49  2092
2017-09-23 13:38   8.6   9.5   189  78.1  68.8  72.6   29.49  2090
2017-09-23 13:36   8.6   9.7   190  78.1  68.9  72.9   29.49  2089
2017-09-23 13:34   7.8   8.9   189  77.7  68.8  73.7   29.49  2089
2017-09-23 13:32   8.0   8.9   194  77.7  68.5  72.9   29.49  2089
2017-09-23 13:30   7.8   8.9   195  77.9  68.5  72.3   29.49  2088
2017-09-23 13:28   8.2   9.1   192  77.9  68.8  73.1   29.49  2086
2017-09-23 13:26   8.2   9.3   191  77.9  68.7  73.0   29.49  2084
2017-09-23 13:24   8.2   9.3   191  78.1  68.6  72.2   29.49  2084
2017-09-23 13:22   8.0   9.1   190  78.3  69.0  72.7   29.49  2083
2017-09-23 13:20   8.0   9.3   190  78.1  68.9  73.0   29.49  2080
2017-09-23 13:18   8.6   9.7   190  78.3  69.0  72.8   29.49  2079
2017-09-23 13:16   8.4   9.7   190  78.3  69.0  72.7   29.49  2077
2017-09-23 13:14   8.6  10.1   191  78.3  68.9  72.6   29.49  2075
2017-09-23 13:12   8.9   9.9   189  78.1  68.8  72.8   29.50  2074
2017-09-23 13:10   7.8   9.5   192  78.1  68.9  73.1   29.50  2071
2017-09-23 13:08   8.4  10.1   189  77.9  68.8  73.2   29.50  2070
2017-09-23 13:06   8.2  10.7   188  78.1  68.7  72.5   29.50  2069
2017-09-23 13:04   9.1  10.7   190  78.4  68.9  72.0   29.50  2067
2017-09-23 13:02   8.6  10.3   185  78.4  68.9  72.0   29.50  2063
2017-09-23 13:00   7.8   9.9   189  78.4  68.7  71.5   29.50  2059
2017-09-23 12:58   8.4  10.1   187  78.6  69.0  72.0   29.50  2059
2017-09-23 12:56   8.2  10.5   189  78.4  69.0  72.3   29.50  2058
2017-09-23 12:54   8.7  10.7   189  78.3  69.1  73.0   29.50  2059
2017-09-23 12:52   8.6  10.1   183  78.1  69.1  73.4   29.50  2056
2017-09-23 12:50   9.1  10.7   187  78.1  69.1  73.5   29.50  2054
2017-09-23 12:48   8.6  10.5   181  77.9  69.0  73.8   29.50  2051
2017-09-23 12:46   8.6  10.3   185  77.7  68.9  74.0   29.50  2050
2017-09-23 12:44   8.4  10.9   184  77.7  68.9  73.9   29.50  2049
2017-09-23 12:42   8.7  10.7   184  77.9  68.8  73.2   29.50  2045
2017-09-23 12:40   8.4  10.7   185  78.3  69.2  73.3   29.50  2041
2017-09-23 12:38   8.0   9.9   184  78.1  69.1  73.4   29.50  2039
2017-09-23 12:36   8.7  10.9   187  78.1  68.9  72.9   29.50  2037
2017-09-23 12:34   8.2  11.1   185  78.1  69.0  73.3   29.50  2035
2017-09-23 12:32   7.8   9.9   186  77.9  68.7  73.0   29.50  2033
2017-09-23 12:30   8.7   9.9   185  78.1  68.8  72.6   29.50  2029
2017-09-23 12:28   7.6   9.9   184  78.1  69.1  73.5   29.50  2027
2017-09-23 12:26   7.4   9.3   183  77.9  69.0  73.6   29.50  2025
2017-09-23 12:24   8.9  10.3   187  78.1  68.6  72.2   29.50  2023
2017-09-23 12:22   6.8   9.7   188  78.1  69.1  73.5   29.50  2021
2017-09-23 12:20   8.7  10.5   186  78.1  68.8  72.8   29.50  2019
2017-09-23 12:18   8.7  10.3   186  78.1  68.8  72.6   29.50  2011
2017-09-23 12:16   7.6   9.3   187  78.1  68.9  73.0   29.50  2015
2017-09-23 12:14   7.4   9.7   186  77.9  68.7  72.8   29.50  2019
2017-09-23 12:12   8.9  10.3   184  77.7  68.7  73.3   29.50  2028
2017-09-23 12:10   8.7   9.9   185  77.5  68.8  74.0   29.50  2033
2017-09-23 12:08   7.8   9.1   186  77.5  68.7  73.9   29.50  1997
2017-09-23 12:06   7.2   8.9   184  77.5  68.7  73.7   29.50  1911
2017-09-23 12:04   7.8   9.1   185  77.5  68.7  73.8   29.50  2010
2017-09-23 12:02   6.6   8.7   186  77.5  68.9  74.3   29.50  2007
2017-09-23 12:00   6.4   8.6   185  77.2  68.7  74.6   29.50  2002
2017-09-23 11:58   7.4   9.5   190  77.2  68.6  74.5   29.50  1989
2017-09-23 11:56   8.0   9.3   191  77.5  68.9  74.2   29.50  1968
2017-09-23 11:54   7.8   8.6   189  77.5  68.7  73.8   29.50  1963
2017-09-23 11:52   7.4   8.9   189  77.5  68.9  74.2   29.50  1967
2017-09-23 11:50   8.2   9.1   188  77.5  69.0  74.6   29.50  1958
2017-09-23 11:48   8.6   9.5   189  77.5  69.0  74.6   29.50  1960
2017-09-23 11:46   8.2   9.9   190  77.4  68.8  74.4   29.49  1947
2017-09-23 11:44   8.7   9.7   191  77.4  69.0  75.1   29.49  1948
2017-09-23 11:42   7.8   9.3   189  77.2  68.8  75.0   29.49  1942
2017-09-23 11:40   8.2   9.7   187  77.2  68.8  75.1   29.49  1936
2017-09-23 11:38   8.2   9.3   187  77.2  68.7  74.8   29.49  1932
2017-09-23 11:36   8.2   9.9   187  77.2  68.9  75.3   29.49  1934
2017-09-23 11:34   7.8   9.7   184  76.8  68.8  75.8   29.49  1928
2017-09-23 11:32   8.4  10.7   186  76.6  68.6  75.9   29.49  1923
2017-09-23 11:30   9.9  11.1   184  76.5  68.3  75.5   29.49  1921
2017-09-23 11:28  11.3  11.9   187  76.3  68.3  75.9   29.49  1907
2017-09-23 11:26  10.7  11.7   194  76.5  68.5  76.1   29.49  1894
2017-09-23 11:24  10.7  11.5   190  76.8  68.8  75.9   29.49  1870
2017-09-23 11:22   9.9  11.7   185  77.0  68.7  75.1   29.49  1854
2017-09-23 11:20  10.1  12.1   185  76.8  68.8  75.8   29.49  1868
2017-09-23 11:18  10.1  11.3   184  76.6  68.6  75.8   29.49  1899
2017-09-23 11:16  10.5  11.9   184  76.6  68.7  76.2   29.49  1893
2017-09-23 11:14   9.1  11.3   184  76.6  68.9  76.5   29.49  1884
2017-09-23 11:12   9.1  11.3   187  76.6  68.8  76.4   29.49  1873
2017-09-23 11:10   9.9  11.5   185  76.5  68.9  77.1   29.49  1868
2017-09-23 11:08   8.9  10.9   188  76.3  68.7  77.0   29.49  1865
2017-09-23 11:06  10.5  11.7   186  76.3  68.7  77.0   29.49  1854
2017-09-23 11:04  10.3  11.9   185  76.3  68.8  77.4   29.49  1838
2017-09-23 11:02  10.7  12.2   185  75.9  68.8  78.3   29.49  1840
2017-09-23 11:00  10.1  12.1   184  76.1  69.0  78.2   29.49  1843